createdAt,value
2023-02-02T00:00:21.200Z,4.78
2023-02-02T00:05:22.999Z,4.80
2023-02-02T00:10:24.715Z,4.82
2023-02-02T00:15:26.386Z,4.82
2023-02-02T00:20:28.321Z,4.84
2023-02-02T00:25:30.063Z,4.77
2023-02-02T00:30:31.760Z,4.70
2023-02-02T00:35:33.319Z,4.64
2023-02-02T00:40:35.313Z,4.59
2023-02-02T00:45:37.919Z,4.57
2023-02-02T00:50:39.554Z,4.56
2023-02-02T00:55:41.063Z,4.63
2023-02-02T01:00:42.977Z,4.63
2023-02-02T01:05:44.588Z,4.65
2023-02-02T01:10:46.078Z,4.57
2023-02-02T01:15:47.922Z,4.50
2023-02-02T01:21:04.330Z,4.47
2023-02-02T01:26:08.433Z,4.50
2023-02-02T01:31:13.321Z,4.41
2023-02-02T01:36:18.082Z,4.40
2023-02-02T01:41:22.973Z,4.35
2023-02-02T01:46:25.957Z,4.30
2023-02-02T01:51:35.084Z,4.23
2023-02-02T01:56:44.079Z,4.10
2023-02-02T02:01:48.372Z,3.99
2023-02-02T02:06:53.940Z,3.93
2023-02-02T02:11:55.808Z,3.89
2023-02-02T02:17:08.768Z,3.84
2023-02-02T02:22:39.701Z,3.83
2023-02-02T02:34:28.592Z,3.49
2023-02-02T02:40:25.355Z,3.30
2023-02-02T02:51:47.896Z,3.11
2023-02-02T02:57:13.437Z,3.05
2023-02-02T03:09:10.291Z,2.93
2023-02-02T03:26:40.186Z,2.92
2023-02-02T03:32:57.304Z,2.93
2023-02-02T03:38:29.030Z,2.96
2023-02-02T03:44:03.958Z,2.97
2023-02-02T04:01:14.178Z,2.83
2023-02-02T04:12:34.019Z,2.72
2023-02-02T04:23:33.514Z,2.65
2023-02-02T04:28:59.949Z,2.65
2023-02-02T04:34:22.995Z,2.63
2023-02-02T04:44:55.539Z,2.67
2023-02-02T04:50:08.352Z,2.63
2023-02-02T04:55:18.735Z,2.61
2023-02-02T05:00:29.143Z,2.62
2023-02-02T05:05:47.596Z,2.59
2023-02-02T05:11:14.587Z,2.53
2023-02-02T05:16:19.998Z,2.50
2023-02-02T05:21:28.463Z,2.48
2023-02-02T05:32:06.274Z,2.54
2023-02-02T05:37:20.640Z,2.50
2023-02-02T05:42:51.490Z,2.47
2023-02-02T05:48:09.779Z,2.46
2023-02-02T05:53:17.799Z,2.50
2023-02-02T05:58:28.295Z,2.52
2023-02-02T06:03:39.541Z,2.55
2023-02-02T06:08:49.858Z,2.60
2023-02-02T06:14:01.948Z,2.62
2023-02-02T06:19:09.915Z,2.60
2023-02-02T06:24:12.474Z,2.60
2023-02-02T06:29:22.101Z,2.63
2023-02-02T06:34:27.491Z,2.63
2023-02-02T06:39:42.754Z,2.64
2023-02-02T06:44:51.015Z,2.67
2023-02-02T06:49:53.607Z,2.69
2023-02-02T06:55:14.667Z,2.68
2023-02-02T07:00:20.747Z,2.70
2023-02-02T07:05:32.872Z,2.70
2023-02-02T07:11:13.741Z,2.70
2023-02-02T07:16:03.102Z,2.73
2023-02-02T07:21:05.770Z,2.75
2023-02-02T07:26:13.741Z,2.73
2023-02-02T07:31:26.849Z,2.75
2023-02-02T07:36:31.279Z,2.81
2023-02-02T07:41:39.145Z,2.89
2023-02-02T07:46:50.065Z,2.92
2023-02-02T07:51:55.177Z,3.01
2023-02-02T07:57:02.496Z,3.09
2023-02-02T08:02:09.566Z,3.16
2023-02-02T08:07:16.147Z,3.19
2023-02-02T08:12:19.336Z,3.23
2023-02-02T08:17:23.021Z,3.25
2023-02-02T08:22:25.472Z,3.32
2023-02-02T08:27:27.700Z,3.43
2023-02-02T08:32:35.238Z,3.47
2023-02-02T08:37:37.486Z,3.57
2023-02-02T08:42:39.437Z,3.70
2023-02-02T08:47:44.817Z,3.78
2023-02-02T08:52:46.972Z,3.88
2023-02-02T08:57:51.467Z,3.94
2023-02-02T09:02:56.833Z,4.02
2023-02-02T09:07:59.272Z,4.07
2023-02-02T09:13:03.179Z,4.16
2023-02-02T09:18:05.180Z,4.27
2023-02-02T09:23:07.240Z,4.33
2023-02-02T09:28:08.891Z,4.42
2023-02-02T09:33:10.697Z,4.46
2023-02-02T09:38:12.353Z,4.56
2023-02-02T09:43:59.158Z,4.56
2023-02-02T09:49:06.330Z,4.64
2023-02-02T09:54:26.769Z,4.70
2023-02-02T09:59:35.617Z,4.82
2023-02-02T10:04:40.460Z,4.88
2023-02-02T10:09:47.007Z,4.97
2023-02-02T10:15:23.054Z,5.08
2023-02-02T10:20:33.825Z,5.16
2023-02-02T10:25:35.416Z,5.32
2023-02-02T10:30:54.147Z,5.58
2023-02-02T10:36:05.803Z,5.83
2023-02-02T10:41:28.659Z,6.24
2023-02-02T10:47:08.030Z,6.09
2023-02-02T10:52:24.172Z,6.07
2023-02-02T10:58:07.307Z,6.10
2023-02-02T11:03:11.973Z,5.98
2023-02-02T11:08:20.964Z,6.06
2023-02-02T11:13:33.943Z,6.06
2023-02-02T11:18:35.713Z,6.05
2023-02-02T11:23:39.208Z,6.04
2023-02-02T11:28:40.906Z,5.99
2023-02-02T11:33:42.824Z,6.03
2023-02-02T11:39:04.897Z,6.02
2023-02-02T11:44:12.178Z,6.17
2023-02-02T11:49:19.015Z,6.32
2023-02-02T11:54:33.266Z,6.27
2023-02-02T11:59:37.934Z,6.40
2023-02-02T12:04:40.378Z,6.45
2023-02-02T12:09:41.935Z,6.51
2023-02-02T12:15:12.176Z,6.57
2023-02-02T12:20:38.308Z,6.69
2023-02-02T12:26:06.157Z,6.71
2023-02-02T12:31:44.086Z,6.76
2023-02-02T12:36:51.805Z,6.85
2023-02-02T12:42:15.321Z,6.81
2023-02-02T12:47:36.158Z,6.86
2023-02-02T12:52:46.534Z,6.90
2023-02-02T12:57:56.797Z,6.92
2023-02-02T13:03:17.926Z,6.86
2023-02-02T13:08:32.040Z,6.78
2023-02-02T13:13:38.422Z,6.83
2023-02-02T13:19:05.847Z,6.84
2023-02-02T13:24:35.579Z,6.80
2023-02-02T13:30:08.926Z,6.71
2023-02-02T13:35:35.670Z,6.87
2023-02-02T13:40:53.951Z,6.88
2023-02-02T13:46:45.613Z,6.88
2023-02-02T13:52:25.357Z,6.92
2023-02-02T13:58:02.909Z,6.88
2023-02-02T14:08:46.814Z,6.86
2023-02-02T14:14:20.272Z,6.85
2023-02-02T14:19:51.283Z,6.79
2023-02-02T14:24:55.567Z,6.59
2023-02-02T14:29:58.487Z,6.49
2023-02-02T14:35:09.134Z,6.40
2023-02-02T14:40:26.957Z,6.39
2023-02-02T14:45:28.635Z,6.31
2023-02-02T14:50:39.536Z,6.23
2023-02-02T14:56:01.350Z,6.23
2023-02-02T15:01:27.815Z,6.14
2023-02-02T15:06:37.640Z,6.10
2023-02-02T15:12:01.638Z,6.03
2023-02-02T15:17:20.930Z,5.95
2023-02-02T15:22:40.296Z,5.91
2023-02-02T15:27:56.216Z,5.87
2023-02-02T15:33:02.090Z,5.77
2023-02-02T15:38:12.875Z,5.73
2023-02-02T15:43:15.448Z,5.64
2023-02-02T15:48:31.552Z,5.60
2023-02-02T15:53:42.106Z,5.58
2023-02-02T15:58:48.136Z,5.56
2023-02-02T16:04:01.825Z,5.46
2023-02-02T16:09:05.657Z,5.35
2023-02-02T16:14:14.113Z,5.28
2023-02-02T16:19:25.645Z,5.15
2023-02-02T16:24:44.136Z,5.08
2023-02-02T16:29:46.399Z,4.98
2023-02-02T16:34:49.127Z,4.98
2023-02-02T16:39:55.064Z,4.91
2023-02-02T16:45:01.144Z,4.81
2023-02-02T16:50:10.254Z,4.66
2023-02-02T16:55:50.426Z,4.64
2023-02-02T17:06:52.751Z,4.55
2023-02-02T17:12:34.222Z,4.54
2023-02-02T17:17:36.371Z,4.41
2023-02-02T17:22:41.258Z,4.41
2023-02-02T17:27:43.234Z,4.41
2023-02-02T17:32:44.901Z,4.41
2023-02-02T17:37:47.178Z,4.38
2023-02-02T17:42:52.138Z,4.39
2023-02-02T17:47:53.742Z,4.38
2023-02-02T17:52:55.768Z,4.34
2023-02-02T17:57:57.935Z,4.31
2023-02-02T18:03:20.871Z,4.28
2023-02-02T18:08:23.000Z,4.22
2023-02-02T18:13:24.595Z,4.20
2023-02-02T18:18:27.316Z,4.17
2023-02-02T18:23:29.208Z,4.17
2023-02-02T18:28:30.792Z,4.18
2023-02-02T18:33:32.414Z,4.19
2023-02-02T18:38:33.952Z,4.18
2023-02-02T18:43:35.841Z,4.20
2023-02-02T18:48:37.751Z,4.19
2023-02-02T18:53:39.338Z,4.23
2023-02-02T18:58:41.285Z,4.23
2023-02-02T19:03:47.137Z,4.25
2023-02-02T19:08:48.821Z,4.27
2023-02-02T19:13:50.521Z,4.35
2023-02-02T19:18:59.342Z,4.35
2023-02-02T19:24:04.806Z,4.36
2023-02-02T19:29:22.879Z,4.39
2023-02-02T19:34:36.462Z,4.45
2023-02-02T19:39:49.287Z,4.51
2023-02-02T19:44:51.240Z,4.56
2023-02-02T19:49:53.150Z,4.61
2023-02-02T19:54:54.786Z,4.70
2023-02-02T19:59:56.349Z,4.72
2023-02-02T20:05:15.506Z,4.77
2023-02-02T20:10:23.403Z,4.87
2023-02-02T20:15:33.218Z,4.94
2023-02-02T20:20:40.513Z,5.01
2023-02-02T20:25:44.263Z,5.10
2023-02-02T20:30:45.868Z,5.22
2023-02-02T20:35:47.772Z,5.34
2023-02-02T20:40:49.942Z,5.42
2023-02-02T20:45:52.296Z,5.51
2023-02-02T20:50:54.112Z,5.62
2023-02-02T20:55:58.212Z,5.72
2023-02-02T21:01:05.200Z,5.84
2023-02-02T21:06:06.936Z,5.98
2023-02-02T21:11:08.634Z,6.06
2023-02-02T21:16:10.270Z,6.15
2023-02-02T21:21:14.105Z,6.20
2023-02-02T21:31:30.314Z,6.30
2023-02-02T21:36:43.303Z,6.31
2023-02-02T21:41:48.481Z,6.33
2023-02-02T22:05:07.289Z,6.41
2023-02-02T22:16:21.755Z,6.42
2023-02-02T22:21:37.240Z,6.44
2023-02-02T22:27:03.475Z,6.49
2023-02-02T22:32:40.697Z,6.52
2023-02-02T22:37:57.920Z,6.53
2023-02-02T22:49:24.252Z,6.58
2023-02-02T22:54:18.508Z,6.58
2023-02-02T22:59:46.485Z,6.63
2023-02-02T23:05:11.136Z,6.68
2023-02-02T23:15:53.497Z,6.76
2023-02-02T23:21:41.592Z,6.81
2023-02-02T23:27:44.259Z,6.83
2023-02-02T23:33:09.000Z,6.82
2023-02-02T23:38:36.564Z,6.84
2023-02-02T23:43:53.312Z,6.87
2023-02-02T23:49:13.616Z,6.87
2023-02-02T23:55:10.874Z,6.89
